sensor_id;sensor_type;location;lat;lon;timestamp;pressure;altitude;pressure_sealevel;temperature;humidity
29461;BME280;16428;47.836;35.106;2023-01-30T00:01:56;101288.91;;;-0.05;100.00
29461;BME280;16428;47.836;35.106;2023-01-30T00:04:33;101286.94;;;-0.02;100.00
29461;BME280;16428;47.836;35.106;2023-01-30T00:07:10;101289.59;;;-0.16;100.00
29461;BME280;16428;47.836;35.106;2023-01-30T00:09:44;101280.50;;;-0.12;100.00
29461;BME280;16428;47.836;35.106;2023-01-30T00:12:19;101283.53;;;-0.18;100.00
29461;BME280;16428;47.836;35.106;2023-01-30T00:14:48;101277.09;;;-0.14;100.00
29461;BME280;16428;47.836;35.106;2023-01-30T00:17:23;101281.84;;;-0.05;100.00
29461;BME280;16428;47.836;35.106;2023-01-30T00:19:55;101285.88;;;0.01;100.00
29461;BME280;16428;47.836;35.106;2023-01-30T00:22:31;101279.56;;;0.04;100.00
29461;BME280;16428;47.836;35.106;2023-01-30T00:25:09;101284.47;;;-0.05;100.00
29461;BME280;16428;47.836;35.106;2023-01-30T00:27:40;101279.97;;;-0.03;100.00
29461;BME280;16428;47.836;35.106;2023-01-30T00:30:12;101287.19;;;0.08;100.00
29461;BME280;16428;47.836;35.106;2023-01-30T00:32:41;101289.59;;;-0.02;100.00
29461;BME280;16428;47.836;35.106;2023-01-30T00:35:10;101284.47;;;-0.05;100.00
29461;BME280;16428;47.836;35.106;2023-01-30T00:37:39;101280.31;;;-0.09;100.00
29461;BME280;16428;47.836;35.106;2023-01-30T00:40:08;101280.50;;;0.03;100.00
29461;BME280;16428;47.836;35.106;2023-01-30T00:42:37;101280.59;;;-0.13;100.00
29461;BME280;16428;47.836;35.106;2023-01-30T00:45:25;101280.16;;;-0.06;100.00
29461;BME280;16428;47.836;35.106;2023-01-30T00:48:13;101287.66;;;-0.14;100.00
29461;BME280;16428;47.836;35.106;2023-01-30T00:50:42;101285.88;;;-0.13;100.00
29461;BME280;16428;47.836;35.106;2023-01-30T00:53:15;101281.84;;;-0.05;100.00
29461;BME280;16428;47.836;35.106;2023-01-30T00:55:44;101281.00;;;-0.19;100.00
29461;BME280;16428;47.836;35.106;2023-01-30T00:58:13;101276.56;;;-0.19;100.00
29461;BME280;16428;47.836;35.106;2023-01-30T01:00:42;101279.97;;;-0.17;100.00
29461;BME280;16428;47.836;35.106;2023-01-30T01:03:12;101268.81;;;-0.22;100.00
29461;BME280;16428;47.836;35.106;2023-01-30T01:05:40;101278.25;;;-0.18;100.00
29461;BME280;16428;47.836;35.106;2023-01-30T01:08:10;101276.56;;;-0.05;100.00
29461;BME280;16428;47.836;35.106;2023-01-30T01:10:40;101278.06;;;-0.15;100.00
29461;BME280;16428;47.836;35.106;2023-01-30T01:13:08;101282.22;;;-0.11;100.00
29461;BME280;16428;47.836;35.106;2023-01-30T01:15:37;101283.72;;;-0.21;100.00
29461;BME280;16428;47.836;35.106;2023-01-30T01:18:07;101288.50;;;0.01;100.00
29461;BME280;16428;47.836;35.106;2023-01-30T01:20:35;101281.44;;;-0.27;100.00
29461;BME280;16428;47.836;35.106;2023-01-30T01:23:09;101288.34;;;-0.24;100.00
29461;BME280;16428;47.836;35.106;2023-01-30T01:25:40;101280.69;;;-0.29;100.00
29461;BME280;16428;47.836;35.106;2023-01-30T01:28:09;101285.50;;;-0.50;100.00
29461;BME280;16428;47.836;35.106;2023-01-30T01:30:40;101276.84;;;-0.38;100.00
29461;BME280;16428;47.836;35.106;2023-01-30T01:33:10;101270.72;;;-0.38;100.00
29461;BME280;16428;47.836;35.106;2023-01-30T01:35:43;101264.47;;;-0.51;100.00
29461;BME280;16428;47.836;35.106;2023-01-30T01:38:12;101267.47;;;-0.57;100.00
29461;BME280;16428;47.836;35.106;2023-01-30T01:40:45;101275.31;;;-0.42;100.00
29461;BME280;16428;47.836;35.106;2023-01-30T01:43:57;101277.50;;;-0.34;100.00
29461;BME280;16428;47.836;35.106;2023-01-30T01:46:47;101275.22;;;-0.26;100.00
29461;BME280;16428;47.836;35.106;2023-01-30T01:49:24;101269.38;;;-0.45;100.00
29461;BME280;16428;47.836;35.106;2023-01-30T01:52:07;101266.84;;;-0.47;100.00
29461;BME280;16428;47.836;35.106;2023-01-30T01:54:58;101261.94;;;-0.39;100.00
29461;BME280;16428;47.836;35.106;2023-01-30T01:57:34;101259.78;;;-0.32;100.00
29461;BME280;16428;47.836;35.106;2023-01-30T02:02:41;101263.91;;;-0.28;100.00
29461;BME280;16428;47.836;35.106;2023-01-30T02:05:16;101254.13;;;-0.26;100.00
29461;BME280;16428;47.836;35.106;2023-01-30T02:08:10;101255.06;;;-0.41;100.00
29461;BME280;16428;47.836;35.106;2023-01-30T02:13:44;101256.38;;;-0.20;100.00
29461;BME280;16428;47.836;35.106;2023-01-30T02:16:14;101262.44;;;-0.32;100.00
29461;BME280;16428;47.836;35.106;2023-01-30T02:18:44;101263.06;;;-0.43;100.00
29461;BME280;16428;47.836;35.106;2023-01-30T02:24:50;101265.06;;;-0.32;100.00
29461;BME280;16428;47.836;35.106;2023-01-30T02:37:00;101273.94;;;-0.33;100.00
29461;BME280;16428;47.836;35.106;2023-01-30T02:49:05;101281.94;;;-0.34;100.00
29461;BME280;16428;47.836;35.106;2023-01-30T02:51:41;101271.56;;;-0.38;100.00
29461;BME280;16428;47.836;35.106;2023-01-30T02:54:11;101274.53;;;-0.58;100.00
29461;BME280;16428;47.836;35.106;2023-01-30T02:56:52;101282.38;;;-0.56;100.00
29461;BME280;16428;47.836;35.106;2023-01-30T02:59:42;101275.81;;;-0.49;100.00
29461;BME280;16428;47.836;35.106;2023-01-30T03:05:30;101269.28;;;-0.29;100.00
29461;BME280;16428;47.836;35.106;2023-01-30T03:11:04;101266.78;;;-0.31;100.00
29461;BME280;16428;47.836;35.106;2023-01-30T03:13:49;101262.97;;;-0.27;100.00
29461;BME280;16428;47.836;35.106;2023-01-30T03:16:37;101260.72;;;-0.19;100.00
29461;BME280;16428;47.836;35.106;2023-01-30T03:19:11;101254.88;;;-0.38;100.00
29461;BME280;16428;47.836;35.106;2023-01-30T03:21:45;101251.47;;;-0.40;100.00
29461;BME280;16428;47.836;35.106;2023-01-30T03:24:15;101253.75;;;-0.48;100.00
29461;BME280;16428;47.836;35.106;2023-01-30T03:26:48;101255.63;;;-0.36;100.00
29461;BME280;16428;47.836;35.106;2023-01-30T03:29:22;101261.09;;;-0.25;100.00
29461;BME280;16428;47.836;35.106;2023-01-30T03:31:51;101257.88;;;-0.30;100.00
29461;BME280;16428;47.836;35.106;2023-01-30T03:34:22;101260.53;;;-0.16;100.00
29461;BME280;16428;47.836;35.106;2023-01-30T03:36:52;101250.44;;;-0.38;100.00
29461;BME280;16428;47.836;35.106;2023-01-30T03:39:22;101255.53;;;-0.49;100.00
29461;BME280;16428;47.836;35.106;2023-01-30T03:41:52;101258.63;;;-0.42;100.00
29461;BME280;16428;47.836;35.106;2023-01-30T03:44:21;101258.09;;;-0.33;100.00
29461;BME280;16428;47.836;35.106;2023-01-30T03:46:51;101257.50;;;-0.52;100.00
29461;BME280;16428;47.836;35.106;2023-01-30T03:49:20;101258.06;;;-0.61;100.00
29461;BME280;16428;47.836;35.106;2023-01-30T03:51:49;101251.66;;;-0.57;100.00
29461;BME280;16428;47.836;35.106;2023-01-30T03:54:21;101258.84;;;-0.31;100.00
29461;BME280;16428;47.836;35.106;2023-01-30T03:56:49;101246.84;;;-0.51;100.00
29461;BME280;16428;47.836;35.106;2023-01-30T03:59:18;101250.91;;;-0.45;100.00
29461;BME280;16428;47.836;35.106;2023-01-30T04:01:46;101266.47;;;-0.41;100.00
29461;BME280;16428;47.836;35.106;2023-01-30T04:04:15;101259.22;;;-0.37;100.00
29461;BME280;16428;47.836;35.106;2023-01-30T04:06:45;101262.03;;;-0.40;100.00
29461;BME280;16428;47.836;35.106;2023-01-30T04:09:14;101265.25;;;-0.35;100.00
29461;BME280;16428;47.836;35.106;2023-01-30T04:11:44;101269.50;;;-0.18;100.00
29461;BME280;16428;47.836;35.106;2023-01-30T04:14:14;101262.03;;;-0.26;100.00
29461;BME280;16428;47.836;35.106;2023-01-30T04:16:44;101264.47;;;-0.51;100.00
29461;BME280;16428;47.836;35.106;2023-01-30T04:19:13;101271.47;;;-0.50;100.00
29461;BME280;16428;47.836;35.106;2023-01-30T04:21:42;101267.69;;;-0.46;100.00
29461;BME280;16428;47.836;35.106;2023-01-30T04:24:11;101273.91;;;-0.47;100.00
29461;BME280;16428;47.836;35.106;2023-01-30T04:26:40;101275.31;;;-0.42;100.00
29461;BME280;16428;47.836;35.106;2023-01-30T04:29:10;101279.97;;;-0.31;100.00
29461;BME280;16428;47.836;35.106;2023-01-30T04:31:40;101277.97;;;-0.42;100.00
29461;BME280;16428;47.836;35.106;2023-01-30T04:34:12;101289.28;;;-0.40;100.00
29461;BME280;16428;47.836;35.106;2023-01-30T04:36:41;101294.75;;;-0.28;100.00
29461;BME280;16428;47.836;35.106;2023-01-30T04:39:20;101290.97;;;-0.39;100.00
29461;BME280;16428;47.836;35.106;2023-01-30T04:41:52;101292.00;;;-0.41;100.00
29461;BME280;16428;47.836;35.106;2023-01-30T04:44:20;101298.44;;;-0.31;100.00
29461;BME280;16428;47.836;35.106;2023-01-30T04:46:52;101296.06;;;-0.36;100.00
29461;BME280;16428;47.836;35.106;2023-01-30T04:49:21;101296.81;;;-0.48;100.00
29461;BME280;16428;47.836;35.106;2023-01-30T04:51:52;101290.03;;;-0.52;100.00
29461;BME280;16428;47.836;35.106;2023-01-30T04:54:22;101297.00;;;-0.51;100.00
29461;BME280;16428;47.836;35.106;2023-01-30T04:56:51;101293.69;;;-0.54;100.00
29461;BME280;16428;47.836;35.106;2023-01-30T04:59:21;101291.25;;;-0.29;100.00
29461;BME280;16428;47.836;35.106;2023-01-30T05:01:50;101295.75;;;-0.45;100.00
29461;BME280;16428;47.836;35.106;2023-01-30T05:04:20;101295.22;;;-0.36;100.00
29461;BME280;16428;47.836;35.106;2023-01-30T05:06:49;101299.38;;;-0.18;100.00
29461;BME280;16428;47.836;35.106;2023-01-30T05:09:18;101289.28;;;-0.40;100.00
29461;BME280;16428;47.836;35.106;2023-01-30T05:11:48;101292.19;;;-0.44;100.00
29461;BME280;16428;47.836;35.106;2023-01-30T05:14:17;101290.03;;;-0.52;100.00
29461;BME280;16428;47.836;35.106;2023-01-30T05:16:47;101290.47;;;-0.45;100.00
29461;BME280;16428;47.836;35.106;2023-01-30T05:19:18;101297.88;;;-0.36;100.00
29461;BME280;16428;47.836;35.106;2023-01-30T05:21:47;101291.66;;;-0.35;100.00
29461;BME280;16428;47.836;35.106;2023-01-30T05:24:16;101290.69;;;-0.48;100.00
29461;BME280;16428;47.836;35.106;2023-01-30T05:26:44;101287.28;;;-0.50;100.00
29461;BME280;16428;47.836;35.106;2023-01-30T05:29:14;101292.25;;;-0.60;100.00
29461;BME280;16428;47.836;35.106;2023-01-30T05:31:43;101285.41;;;-0.48;100.00
29461;BME280;16428;47.836;35.106;2023-01-30T05:34:13;101288.44;;;-0.40;100.00
29461;BME280;16428;47.836;35.106;2023-01-30T05:36:44;101292.56;;;-0.50;100.00
29461;BME280;16428;47.836;35.106;2023-01-30T05:39:13;101293.53;;;-0.37;100.00
29461;BME280;16428;47.836;35.106;2023-01-30T05:41:42;101291.16;;;-0.42;100.00
29461;BME280;16428;47.836;35.106;2023-01-30T05:44:13;101287.75;;;-0.29;100.00
29461;BME280;16428;47.836;35.106;2023-01-30T05:46:43;101290.53;;;-0.31;100.00
29461;BME280;16428;47.836;35.106;2023-01-30T05:49:13;101284.84;;;-0.39;100.00
29461;BME280;16428;47.836;35.106;2023-01-30T05:51:42;101284.09;;;-0.41;100.00
29461;BME280;16428;47.836;35.106;2023-01-30T05:54:13;101286.66;;;-0.25;100.00
29461;BME280;16428;47.836;35.106;2023-01-30T05:56:43;101296.34;;;-0.26;100.00
29461;BME280;16428;47.836;35.106;2023-01-30T05:59:12;101296.94;;;-0.21;100.00
29461;BME280;16428;47.836;35.106;2023-01-30T06:01:43;101291.34;;;-0.45;100.00
29461;BME280;16428;47.836;35.106;2023-01-30T06:04:12;101295.31;;;-0.23;100.00
29461;BME280;16428;47.836;35.106;2023-01-30T06:06:41;101293.25;;;-0.47;100.00
29461;BME280;16428;47.836;35.106;2023-01-30T06:09:12;101292.19;;;-0.44;100.00
29461;BME280;16428;47.836;35.106;2023-01-30T06:11:42;101293.31;;;-0.62;100.00
29461;BME280;16428;47.836;35.106;2023-01-30T06:14:12;101300.50;;;-0.50;100.00
29461;BME280;16428;47.836;35.106;2023-01-30T06:16:40;101299.91;;;-0.55;100.00
29461;BME280;16428;47.836;35.106;2023-01-30T06:19:09;101297.59;;;-0.76;100.00
29461;BME280;16428;47.836;35.106;2023-01-30T06:21:39;101297.03;;;-0.81;100.00
29461;BME280;16428;47.836;35.106;2023-01-30T06:24:11;101303.13;;;-0.50;100.00
29461;BME280;16428;47.836;35.106;2023-01-30T06:26:42;101291.06;;;-0.26;100.00
29461;BME280;16428;47.836;35.106;2023-01-30T06:29:16;101294.72;;;-0.43;100.00
29461;BME280;16428;47.836;35.106;2023-01-30T06:31:47;101293.13;;;-0.45;100.00
29461;BME280;16428;47.836;35.106;2023-01-30T06:34:16;101293.97;;;-0.30;100.00
29461;BME280;16428;47.836;35.106;2023-01-30T06:36:46;101294.84;;;-0.30;100.00
29461;BME280;16428;47.836;35.106;2023-01-30T06:39:32;101293.81;;;-0.27;100.00
29461;BME280;16428;47.836;35.106;2023-01-30T06:42:03;101296.44;;;-0.27;100.00
29461;BME280;16428;47.836;35.106;2023-01-30T06:44:33;101294.28;;;-0.21;100.00
29461;BME280;16428;47.836;35.106;2023-01-30T06:47:05;101291.38;;;-0.16;100.00
29461;BME280;16428;47.836;35.106;2023-01-30T06:49:35;101287.22;;;-0.06;100.00
29461;BME280;16428;47.836;35.106;2023-01-30T06:52:09;101296.34;;;-0.12;100.00
29461;BME280;16428;47.836;35.106;2023-01-30T06:54:39;101296.00;;;-0.20;100.00
29461;BME280;16428;47.836;35.106;2023-01-30T06:57:09;101296.00;;;-0.06;100.00
29461;BME280;16428;47.836;35.106;2023-01-30T06:59:48;101284.94;;;0.02;100.00
29461;BME280;16428;47.836;35.106;2023-01-30T07:02:27;101285.50;;;-0.07;100.00
29461;BME280;16428;47.836;35.106;2023-01-30T11:19:06;101072.53;;;1.46;97.62
29461;BME280;16428;47.836;35.106;2023-01-30T11:32:05;101050.25;;;1.61;96.41
29461;BME280;16428;47.836;35.106;2023-01-30T11:45:32;101033.94;;;1.30;98.13
29461;BME280;16428;47.836;35.106;2023-01-30T11:57:47;101030.97;;;1.59;95.46
29461;BME280;16428;47.836;35.106;2023-01-30T12:00:46;101025.78;;;1.57;95.71
29461;BME280;16428;47.836;35.106;2023-01-30T12:03:44;101024.31;;;1.66;94.66
29461;BME280;16428;47.836;35.106;2023-01-30T12:31:30;101013.41;;;1.82;94.37
29461;BME280;16428;47.836;35.106;2023-01-30T12:35:00;101006.69;;;2.13;91.41
29461;BME280;16428;47.836;35.106;2023-01-30T13:26:08;100978.97;;;3.39;83.55
29461;BME280;16428;47.836;35.106;2023-01-30T13:28:56;100981.28;;;3.22;83.78
29461;BME280;16428;47.836;35.106;2023-01-30T13:32:17;100977.84;;;2.99;83.21
29461;BME280;16428;47.836;35.106;2023-01-30T13:35:45;100975.19;;;2.76;84.99
29461;BME280;16428;47.836;35.106;2023-01-30T13:39:02;100976.03;;;2.55;84.18
29461;BME280;16428;47.836;35.106;2023-01-30T13:41:53;100967.41;;;2.18;87.48
29461;BME280;16428;47.836;35.106;2023-01-30T13:44:35;100962.69;;;2.10;85.64
29461;BME280;16428;47.836;35.106;2023-01-30T13:47:31;100951.50;;;2.18;85.67
29461;BME280;16428;47.836;35.106;2023-01-30T14:00:35;100954.44;;;1.91;85.08
29461;BME280;16428;47.836;35.106;2023-01-30T18:54:13;100852.84;;;0.25;100.00
29461;BME280;16428;47.836;35.106;2023-01-30T18:56:57;100853.56;;;0.40;100.00
29461;BME280;16428;47.836;35.106;2023-01-30T18:59:46;100858.13;;;0.25;100.00
29461;BME280;16428;47.836;35.106;2023-01-30T19:02:37;100849.03;;;0.42;100.00
29461;BME280;16428;47.836;35.106;2023-01-30T19:05:59;100848.19;;;0.41;100.00
29461;BME280;16428;47.836;35.106;2023-01-30T19:09:40;100856.78;;;0.07;100.00
29461;BME280;16428;47.836;35.106;2023-01-30T19:12:48;100862.97;;;0.31;100.00
29461;BME280;16428;47.836;35.106;2023-01-30T19:16:06;100859.53;;;-0.08;100.00
29461;BME280;16428;47.836;35.106;2023-01-30T19:19:03;100848.66;;;-0.16;100.00
29461;BME280;16428;47.836;35.106;2023-01-30T19:22:04;100854.56;;;-0.12;100.00
29461;BME280;16428;47.836;35.106;2023-01-30T19:25:23;100866.81;;;-0.11;100.00
29461;BME280;16428;47.836;35.106;2023-01-30T19:29:02;100863.38;;;-0.51;100.00
29461;BME280;16428;47.836;35.106;2023-01-30T20:16:24;100847.91;;;-0.83;100.00
29461;BME280;16428;47.836;35.106;2023-01-30T20:23:24;100850.97;;;-1.03;100.00
29461;BME280;16428;47.836;35.106;2023-01-30T20:49:59;100848.09;;;-0.86;100.00
29461;BME280;16428;47.836;35.106;2023-01-30T20:52:59;100847.28;;;-0.74;100.00
29461;BME280;16428;47.836;35.106;2023-01-30T20:55:59;100846.22;;;-0.84;100.00
29461;BME280;16428;47.836;35.106;2023-01-30T20:58:43;100847.50;;;-0.77;100.00
29461;BME280;16428;47.836;35.106;2023-01-30T21:02:04;100849.31;;;-0.64;100.00
29461;BME280;16428;47.836;35.106;2023-01-30T21:05:23;100845.69;;;-0.76;100.00
29461;BME280;16428;47.836;35.106;2023-01-30T21:09:04;100850.47;;;-0.68;100.00
29461;BME280;16428;47.836;35.106;2023-01-30T21:12:19;100841.63;;;-0.67;100.00
29461;BME280;16428;47.836;35.106;2023-01-30T21:15:09;100841.22;;;-0.61;99.62
29461;BME280;16428;47.836;35.106;2023-01-30T21:18:03;100840.66;;;-0.66;99.12
29461;BME280;16428;47.836;35.106;2023-01-30T21:21:41;100844.81;;;-0.50;98.82
29461;BME280;16428;47.836;35.106;2023-01-30T21:24:47;100841.09;;;-0.60;98.64
29461;BME280;16428;47.836;35.106;2023-01-30T21:30:34;100831.06;;;-0.55;97.95
29461;BME280;16428;47.836;35.106;2023-01-30T21:34:03;100836.56;;;-0.45;98.02
29461;BME280;16428;47.836;35.106;2023-01-30T21:37:23;100825.16;;;-0.58;98.55
29461;BME280;16428;47.836;35.106;2023-01-30T21:44:33;100823.63;;;-0.36;98.44
29461;BME280;16428;47.836;35.106;2023-01-30T21:47:34;100826.25;;;-0.48;98.81
29461;BME280;16428;47.836;35.106;2023-01-30T21:51:08;100823.50;;;-0.34;98.74
29461;BME280;16428;47.836;35.106;2023-01-30T21:53:58;100817.91;;;-0.42;98.63
29461;BME280;16428;47.836;35.106;2023-01-30T21:57:02;100814.41;;;-0.30;98.59
29461;BME280;16428;47.836;35.106;2023-01-30T21:59:53;100815.50;;;-0.32;99.15
29461;BME280;16428;47.836;35.106;2023-01-30T22:02:53;100820.72;;;-0.45;100.00
29461;BME280;16428;47.836;35.106;2023-01-30T22:05:56;100816.09;;;-0.42;100.00
29461;BME280;16428;47.836;35.106;2023-01-30T22:12:05;100812.81;;;-0.45;100.00
29461;BME280;16428;47.836;35.106;2023-01-30T22:14:51;100807.69;;;-0.34;100.00
29461;BME280;16428;47.836;35.106;2023-01-30T22:17:50;100818.63;;;-0.27;100.00
29461;BME280;16428;47.836;35.106;2023-01-30T22:20:23;100812.31;;;-0.12;100.00
29461;BME280;16428;47.836;35.106;2023-01-30T22:23:11;100815.88;;;-0.13;100.00
29461;BME280;16428;47.836;35.106;2023-01-30T22:25:55;100810.84;;;-0.04;100.00
29461;BME280;16428;47.836;35.106;2023-01-30T22:28:34;100811.56;;;0.11;100.00
29461;BME280;16428;47.836;35.106;2023-01-30T22:31:17;100806.19;;;0.00;100.00
29461;BME280;16428;47.836;35.106;2023-01-30T22:34:03;100811.66;;;0.10;100.00
29461;BME280;16428;47.836;35.106;2023-01-30T22:36:51;100805.34;;;-0.01;100.00
29461;BME280;16428;47.836;35.106;2023-01-30T22:39:37;100802.69;;;-0.26;100.00
29461;BME280;16428;47.836;35.106;2023-01-30T22:42:16;100802.28;;;-0.07;100.00
29461;BME280;16428;47.836;35.106;2023-01-30T22:44:59;100809.06;;;-0.16;100.00
29461;BME280;16428;47.836;35.106;2023-01-30T22:47:33;100799.72;;;0.04;100.00
29461;BME280;16428;47.836;35.106;2023-01-30T22:50:10;100794.88;;;-0.02;100.00
29461;BME280;16428;47.836;35.106;2023-01-30T22:52:54;100795.28;;;0.05;100.00
29461;BME280;16428;47.836;35.106;2023-01-30T22:55:24;100797.50;;;0.11;99.97
29461;BME280;16428;47.836;35.106;2023-01-30T22:58:03;100796.00;;;0.19;99.80
29461;BME280;16428;47.836;35.106;2023-01-30T23:00:42;100793.19;;;0.10;99.41
29461;BME280;16428;47.836;35.106;2023-01-30T23:03:13;100791.16;;;0.00;100.00
29461;BME280;16428;47.836;35.106;2023-01-30T23:06:15;100780.81;;;-0.15;100.00
29461;BME280;16428;47.836;35.106;2023-01-30T23:08:59;100782.72;;;0.08;100.00
29461;BME280;16428;47.836;35.106;2023-01-30T23:11:50;100786.06;;;0.23;99.39
29461;BME280;16428;47.836;35.106;2023-01-30T23:14:47;100790.22;;;0.14;99.09
29461;BME280;16428;47.836;35.106;2023-01-30T23:17:21;100792.44;;;0.08;100.00
29461;BME280;16428;47.836;35.106;2023-01-30T23:20:17;100795.94;;;-0.05;100.00
29461;BME280;16428;47.836;35.106;2023-01-30T23:23:04;100783.34;;;0.12;100.00
29461;BME280;16428;47.836;35.106;2023-01-30T23:26:13;100783.72;;;0.31;100.00
29461;BME280;16428;47.836;35.106;2023-01-30T23:28:42;100784.91;;;0.27;100.00
29461;BME280;16428;47.836;35.106;2023-01-30T23:31:19;100783.38;;;0.35;100.00
29461;BME280;16428;47.836;35.106;2023-01-30T23:34:00;100778.88;;;0.25;100.00
29461;BME280;16428;47.836;35.106;2023-01-30T23:36:51;100787.91;;;0.10;100.00
29461;BME280;16428;47.836;35.106;2023-01-30T23:39:38;100780.03;;;0.21;100.00
29461;BME280;16428;47.836;35.106;2023-01-30T23:42:16;100775.94;;;0.17;100.00
29461;BME280;16428;47.836;35.106;2023-01-30T23:44:46;100784.81;;;0.16;100.00
29461;BME280;16428;47.836;35.106;2023-01-30T23:47:16;100791.94;;;0.39;100.00
29461;BME280;16428;47.836;35.106;2023-01-30T23:49:51;100784.16;;;0.25;100.00
29461;BME280;16428;47.836;35.106;2023-01-30T23:52:22;100784.78;;;0.28;100.00
29461;BME280;16428;47.836;35.106;2023-01-30T23:54:52;100786.34;;;0.31;100.00
29461;BME280;16428;47.836;35.106;2023-01-30T23:57:21;100781.34;;;0.15;100.00
29461;BME280;16428;47.836;35.106;2023-01-30T23:59:53;100784.75;;;0.41;100.00
